createdAt,value
2022-09-10T00:01:32.579Z,2.20
2022-09-10T00:04:02.220Z,2.88
2022-09-10T00:06:35.444Z,3.00
2022-09-10T00:09:03.881Z,2.88
2022-09-10T00:11:32.940Z,2.97
2022-09-10T00:14:02.470Z,3.03
2022-09-10T00:16:32.195Z,3.15
2022-09-10T00:19:01.695Z,2.88
2022-09-10T00:21:32.189Z,2.38
2022-09-10T00:24:00.871Z,2.83
2022-09-10T00:26:31.487Z,3.25
2022-09-10T00:29:00.819Z,2.72
2022-09-10T00:31:32.098Z,2.88
2022-09-10T00:34:02.184Z,2.70
2022-09-10T00:36:34.757Z,3.22
2022-09-10T00:39:05.349Z,2.67
2022-09-10T00:41:34.686Z,3.30
2022-09-10T00:44:05.600Z,3.65
2022-09-10T00:46:43.287Z,3.10
2022-09-10T00:49:15.850Z,3.25
2022-09-10T00:51:47.854Z,3.53
2022-09-10T00:54:18.939Z,2.47
2022-09-10T00:56:48.845Z,2.65
2022-09-10T00:59:21.280Z,2.67
2022-09-10T01:01:50.969Z,2.78
2022-09-10T01:04:19.030Z,3.65
2022-09-10T01:06:54.616Z,3.85
2022-09-10T01:09:24.910Z,2.72
2022-09-10T01:12:11.514Z,3.15
2022-09-10T01:15:09.250Z,2.97
2022-09-10T01:17:52.830Z,3.08
2022-09-10T01:20:35.075Z,3.03
2022-09-10T01:23:32.077Z,2.63
2022-09-10T01:26:11.924Z,3.45
2022-09-10T01:28:46.271Z,3.17
2022-09-10T01:31:22.906Z,3.15
2022-09-10T01:33:59.386Z,2.85
2022-09-10T01:36:33.460Z,3.00
2022-09-10T01:39:02.368Z,2.78
2022-09-10T01:41:30.240Z,3.35
2022-09-10T01:43:59.579Z,3.63
2022-09-10T01:46:42.162Z,2.72
2022-09-10T01:49:28.908Z,3.10
2022-09-10T01:52:13.729Z,3.33
2022-09-10T01:54:56.474Z,3.22
2022-09-10T01:57:35.880Z,3.25
2022-09-10T02:00:09.811Z,3.80
2022-09-10T02:02:43.200Z,2.90
2022-09-10T02:05:12.618Z,4.13
2022-09-10T02:07:41.389Z,3.50
2022-09-10T02:10:10.867Z,4.00
2022-09-10T02:12:40.037Z,3.42
2022-09-10T02:15:11.598Z,3.20
2022-09-10T02:17:40.622Z,3.97
2022-09-10T02:20:14.053Z,3.50
2022-09-10T02:22:45.849Z,4.38
2022-09-10T02:25:14.076Z,3.80
2022-09-10T02:27:43.514Z,3.75
2022-09-10T02:30:13.798Z,3.90
2022-09-10T02:32:42.016Z,3.45
2022-09-10T02:35:10.345Z,3.47
2022-09-10T02:37:38.557Z,3.90
2022-09-10T02:40:07.356Z,3.50
2022-09-10T02:42:35.487Z,3.35
2022-09-10T02:45:03.242Z,4.50
2022-09-10T02:47:32.850Z,4.70
2022-09-10T02:50:02.005Z,4.20
2022-09-10T02:52:30.723Z,4.95
2022-09-10T02:54:58.470Z,4.88
2022-09-10T02:57:27.165Z,4.63
2022-09-10T02:59:56.760Z,6.13
2022-09-10T03:02:25.657Z,5.57
2022-09-10T03:04:55.216Z,5.07
2022-09-10T03:07:22.942Z,5.30
2022-09-10T03:09:51.065Z,5.30
2022-09-10T03:12:18.803Z,4.88
2022-09-10T03:14:47.791Z,6.60
2022-09-10T03:17:15.619Z,6.15
2022-09-10T03:19:43.881Z,6.40
2022-09-10T03:22:12.971Z,6.35
2022-09-10T03:24:40.685Z,7.65
2022-09-10T03:27:08.958Z,7.03
2022-09-10T03:29:36.757Z,7.22
2022-09-10T03:32:04.981Z,7.10
2022-09-10T03:34:32.717Z,6.75
2022-09-10T03:37:01.119Z,7.70
2022-09-10T03:39:30.211Z,8.02
2022-09-10T03:41:58.888Z,7.78
2022-09-10T03:44:26.637Z,8.95
2022-09-10T03:46:54.705Z,8.93
2022-09-10T03:49:22.883Z,9.40
2022-09-10T03:51:51.213Z,7.90
2022-09-10T03:54:19.284Z,9.82
2022-09-10T03:56:48.415Z,10.27
2022-09-10T03:59:17.667Z,10.27
2022-09-10T04:01:47.279Z,10.52
2022-09-10T04:04:15.690Z,10.13
2022-09-10T04:06:44.519Z,11.48
2022-09-10T04:09:12.777Z,11.02
2022-09-10T04:11:40.675Z,10.48
2022-09-10T04:14:10.617Z,10.35
2022-09-10T04:16:38.382Z,11.07
2022-09-10T04:19:06.085Z,11.45
2022-09-10T04:21:34.234Z,11.57
2022-09-10T04:24:02.031Z,11.32
2022-09-10T04:26:30.237Z,11.20
2022-09-10T04:28:57.953Z,11.20
2022-09-10T04:31:27.567Z,10.90
2022-09-10T04:33:55.402Z,10.70
2022-09-10T04:36:23.587Z,12.75
2022-09-10T04:38:51.374Z,9.38
2022-09-10T04:41:20.029Z,10.30
2022-09-10T04:43:47.852Z,11.15
2022-09-10T04:46:15.994Z,11.77
2022-09-10T04:48:45.103Z,11.80
2022-09-10T04:51:16.461Z,10.93
2022-09-10T04:53:45.226Z,13.02
2022-09-10T04:56:13.106Z,13.48
2022-09-10T04:58:41.831Z,13.10
2022-09-10T05:01:10.315Z,13.30
2022-09-10T05:03:38.169Z,13.25
2022-09-10T05:06:08.233Z,14.73
2022-09-10T05:08:36.567Z,14.85
2022-09-10T05:11:04.564Z,15.77
2022-09-10T05:13:32.962Z,14.48
2022-09-10T05:16:02.129Z,14.60
2022-09-10T05:18:30.181Z,14.93
2022-09-10T05:20:57.973Z,15.82
2022-09-10T05:23:27.713Z,16.63
2022-09-10T05:25:56.734Z,14.95
2022-09-10T05:28:25.217Z,16.38
2022-09-10T05:30:53.007Z,16.05
2022-09-10T05:33:21.425Z,17.95
2022-09-10T05:35:52.144Z,18.25
2022-09-10T05:38:21.027Z,17.83
2022-09-10T05:40:50.945Z,20.90
2022-09-10T05:43:19.234Z,20.15
2022-09-10T05:45:47.823Z,18.85
2022-09-10T05:48:15.568Z,19.38
2022-09-10T05:50:45.915Z,18.48
2022-09-10T05:53:14.657Z,18.15
2022-09-10T05:55:43.858Z,18.58
2022-09-10T05:58:14.490Z,18.70
2022-09-10T06:00:44.600Z,18.75
2022-09-10T06:03:12.788Z,19.02
2022-09-10T06:05:41.038Z,19.65
2022-09-10T06:08:09.352Z,19.90
2022-09-10T06:10:37.285Z,20.67
2022-09-10T06:13:06.400Z,19.35
2022-09-10T06:15:36.080Z,20.90
2022-09-10T06:18:03.902Z,20.52
2022-09-10T06:20:32.576Z,20.77
2022-09-10T06:23:01.209Z,18.83
2022-09-10T06:25:28.939Z,19.75
2022-09-10T06:27:57.247Z,20.48
2022-09-10T06:30:25.190Z,21.30
2022-09-10T06:32:54.399Z,19.55
2022-09-10T06:35:23.022Z,19.98
2022-09-10T06:37:51.190Z,20.77
2022-09-10T06:40:19.601Z,20.58
2022-09-10T06:42:47.810Z,20.92
2022-09-10T06:45:16.215Z,19.75
2022-09-10T06:48:36.738Z,20.55
2022-09-10T06:50:33.671Z,20.30
2022-09-10T06:53:01.768Z,22.15
2022-09-10T06:55:29.586Z,20.98
2022-09-10T06:58:00.553Z,20.65
2022-09-10T07:00:28.481Z,19.98
2022-09-10T07:02:56.679Z,19.73
2022-09-10T07:05:24.952Z,19.25
2022-09-10T07:07:55.387Z,19.13
2022-09-10T07:10:23.671Z,18.92
2022-09-10T07:12:51.618Z,18.23
2022-09-10T07:15:19.751Z,18.05
2022-09-10T07:17:47.454Z,16.67
2022-09-10T07:20:15.585Z,16.67
2022-09-10T07:22:43.732Z,16.92
2022-09-10T07:25:13.930Z,15.90
2022-09-10T07:27:41.646Z,16.98
2022-09-10T07:30:10.434Z,16.17
2022-09-10T07:32:38.876Z,16.45
2022-09-10T07:35:07.545Z,17.40
2022-09-10T07:37:35.663Z,15.85
2022-09-10T07:40:04.751Z,17.02
2022-09-10T07:42:34.989Z,16.25
2022-09-10T07:45:02.834Z,15.05
2022-09-10T07:47:30.992Z,15.95
2022-09-10T07:49:58.744Z,15.60
2022-09-10T07:52:26.906Z,14.60
2022-09-10T07:54:54.666Z,14.13
2022-09-10T07:57:22.869Z,14.15
2022-09-10T07:59:52.008Z,14.75
2022-09-10T08:02:20.793Z,14.55
2022-09-10T08:04:48.693Z,13.32
2022-09-10T08:07:17.768Z,13.27
2022-09-10T08:09:45.546Z,12.52
2022-09-10T08:12:13.344Z,13.40
2022-09-10T08:14:42.879Z,13.57
2022-09-10T08:17:12.020Z,14.30
2022-09-10T08:19:40.601Z,14.52
2022-09-10T08:22:13.323Z,14.32
2022-09-10T08:24:41.881Z,13.40
2022-09-10T08:27:11.533Z,14.23
2022-09-10T08:29:40.108Z,14.05
2022-09-10T08:32:07.846Z,15.23
2022-09-10T08:34:37.447Z,13.80
2022-09-10T08:37:05.658Z,14.13
2022-09-10T08:39:33.501Z,14.70
2022-09-10T08:42:05.471Z,14.52
2022-09-10T08:44:38.422Z,14.18
2022-09-10T08:47:21.442Z,14.80
2022-09-10T08:49:53.863Z,14.20
2022-09-10T08:52:31.088Z,13.25
2022-09-10T08:55:06.635Z,13.77
2022-09-10T08:57:40.393Z,12.98
2022-09-10T09:00:13.071Z,13.23
2022-09-10T09:02:49.837Z,13.63
2022-09-10T09:05:22.084Z,12.85
2022-09-10T09:07:50.485Z,12.38
2022-09-10T09:10:31.793Z,10.63
2022-09-10T09:13:19.608Z,11.52
2022-09-10T09:15:55.089Z,10.52
2022-09-10T09:18:32.253Z,10.57
2022-09-10T09:21:09.674Z,10.50
2022-09-10T09:24:09.313Z,11.30
2022-09-10T09:26:36.970Z,9.15
2022-09-10T09:29:08.853Z,9.85
2022-09-10T09:31:42.761Z,8.30
2022-09-10T09:34:19.200Z,9.43
2022-09-10T09:36:51.500Z,8.25
2022-09-10T09:39:25.764Z,8.85
2022-09-10T09:42:05.222Z,8.40
2022-09-10T09:44:39.492Z,8.98
2022-09-10T09:47:09.105Z,8.45
2022-09-10T09:49:36.934Z,8.20
2022-09-10T09:52:18.633Z,7.88
2022-09-10T09:57:43.048Z,7.13
2022-09-10T10:00:36.230Z,6.93
2022-09-10T10:03:19.427Z,6.55
2022-09-10T10:05:49.282Z,5.60
2022-09-10T10:08:31.352Z,6.43
2022-09-10T10:10:59.727Z,5.90
2022-09-10T10:13:37.783Z,5.18
2022-09-10T10:16:17.298Z,5.63
2022-09-10T10:18:46.309Z,5.57
2022-09-10T10:21:21.168Z,5.05
2022-09-10T10:23:50.895Z,5.20
2022-09-10T10:26:31.094Z,5.53
2022-09-10T10:29:01.696Z,5.55
2022-09-10T10:31:41.892Z,5.25
2022-09-10T10:34:35.998Z,5.30
2022-09-10T10:37:10.543Z,5.72
2022-09-10T10:40:05.384Z,4.77
2022-09-10T10:42:36.890Z,5.18
2022-09-10T10:45:31.693Z,4.63
2022-09-10T10:48:10.037Z,4.75
2022-09-10T10:50:52.873Z,4.18
2022-09-10T10:53:37.850Z,4.00
2022-09-10T10:56:15.126Z,3.58
2022-09-10T10:58:57.053Z,3.85
2022-09-10T11:01:27.856Z,3.25
2022-09-10T11:04:03.384Z,3.00
2022-09-10T11:06:39.160Z,3.72
2022-09-10T11:09:13.818Z,3.53
2022-09-10T11:11:52.366Z,3.38
2022-09-10T11:14:23.138Z,4.22
2022-09-10T11:16:58.784Z,3.70
2022-09-10T11:19:35.774Z,4.13
2022-09-10T11:22:12.455Z,3.65
2022-09-10T11:24:45.998Z,3.90
2022-09-10T11:27:21.274Z,3.83
2022-09-10T11:32:28.854Z,3.83
2022-09-10T11:35:04.970Z,4.18
2022-09-10T11:37:51.478Z,3.80
2022-09-10T11:40:27.014Z,4.13
2022-09-10T11:43:01.241Z,3.78
2022-09-10T11:45:39.210Z,3.25
2022-09-10T11:48:17.990Z,4.00
2022-09-10T11:50:50.719Z,3.42
2022-09-10T11:53:21.934Z,3.83
2022-09-10T11:56:19.982Z,3.65
2022-09-10T11:59:03.040Z,3.88
2022-09-10T12:02:02.852Z,3.17
2022-09-10T12:04:47.512Z,4.38
2022-09-10T12:07:26.810Z,3.77
2022-09-10T12:10:13.508Z,3.83
2022-09-10T12:12:44.347Z,4.45
2022-09-10T12:15:21.392Z,4.95
2022-09-10T12:17:54.667Z,5.03
2022-09-10T12:20:30.146Z,6.78
2022-09-10T12:22:59.036Z,6.75
2022-09-10T12:25:34.179Z,4.65
2022-09-10T12:28:06.839Z,5.07
2022-09-10T12:31:04.240Z,4.50
2022-09-10T12:34:07.808Z,4.43
2022-09-10T12:37:10.456Z,4.53
2022-09-10T12:39:38.461Z,4.30
2022-09-10T12:42:25.810Z,3.50
2022-09-10T12:44:54.051Z,2.85
2022-09-10T12:47:47.011Z,2.20
2022-09-10T12:50:23.242Z,1.80
2022-09-10T12:53:18.898Z,1.60
2022-09-10T12:55:59.666Z,1.77
2022-09-10T12:58:41.311Z,1.70
2022-09-10T13:01:19.048Z,1.50
2022-09-10T13:03:56.336Z,1.95
2022-09-10T13:06:36.316Z,1.70
2022-09-10T13:09:17.585Z,1.83
2022-09-10T13:11:50.721Z,1.85
2022-09-10T13:14:23.277Z,1.95
2022-09-10T13:16:51.408Z,1.48
2022-09-10T13:19:54.730Z,2.60
2022-09-10T13:22:58.012Z,2.10
2022-09-10T13:25:35.181Z,1.88
2022-09-10T13:28:03.548Z,1.67
2022-09-10T13:30:32.544Z,1.60
2022-09-10T13:33:07.349Z,1.80
2022-09-10T13:36:06.818Z,1.83
2022-09-10T13:39:02.208Z,2.42
2022-09-10T13:42:03.233Z,2.03
2022-09-10T13:44:54.500Z,2.80
2022-09-10T13:47:28.672Z,2.50
2022-09-10T13:50:02.513Z,2.83
2022-09-10T13:52:36.225Z,2.40
2022-09-10T13:55:08.582Z,2.95
2022-09-10T13:57:41.134Z,2.47
2022-09-10T14:00:20.021Z,3.28
2022-09-10T14:02:50.656Z,2.45
2022-09-10T14:05:30.140Z,2.88
2022-09-10T14:08:02.800Z,2.67
2022-09-10T14:10:31.260Z,2.70
2022-09-10T14:12:59.946Z,2.63
2022-09-10T14:15:34.249Z,2.45
2022-09-10T14:18:02.366Z,2.92
2022-09-10T14:20:32.838Z,2.75
2022-09-10T14:23:04.256Z,3.47
2022-09-10T14:25:34.704Z,2.90
2022-09-10T14:28:25.748Z,3.33
2022-09-10T14:31:19.305Z,3.83
2022-09-10T14:33:47.702Z,4.45
2022-09-10T14:36:17.933Z,3.50
2022-09-10T14:38:55.017Z,3.50
2022-09-10T14:41:25.154Z,2.85
2022-09-10T14:44:31.585Z,3.30
2022-09-10T14:47:00.955Z,3.33
2022-09-10T14:49:30.973Z,3.90
2022-09-10T14:51:59.634Z,4.10
2022-09-10T14:54:29.670Z,4.18
2022-09-10T14:56:58.538Z,3.42
2022-09-10T14:59:31.445Z,4.00
2022-09-10T15:02:01.197Z,3.72
2022-09-10T15:04:31.057Z,3.72
2022-09-10T15:06:59.833Z,3.17
2022-09-10T15:09:30.344Z,2.50
2022-09-10T15:12:02.232Z,2.60
2022-09-10T15:14:32.356Z,3.38
2022-09-10T15:17:00.551Z,2.88
2022-09-10T15:19:28.323Z,2.78
2022-09-10T15:21:56.724Z,2.92
2022-09-10T15:24:25.216Z,2.83
2022-09-10T15:26:56.590Z,2.78
2022-09-10T15:29:26.154Z,3.60
2022-09-10T15:31:54.907Z,3.17
2022-09-10T15:34:22.591Z,3.75
2022-09-10T15:36:50.884Z,2.78
2022-09-10T15:39:18.659Z,2.67
2022-09-10T15:41:46.727Z,3.20
2022-09-10T15:44:18.315Z,3.20
2022-09-10T15:46:47.550Z,4.40
2022-09-10T15:49:15.309Z,3.30
2022-09-10T15:51:43.065Z,3.40
2022-09-10T15:54:12.408Z,3.22
2022-09-10T15:56:41.263Z,2.90
2022-09-10T15:59:10.244Z,3.42
2022-09-10T16:01:40.008Z,4.03
2022-09-10T16:04:08.055Z,4.22
2022-09-10T16:06:38.203Z,3.30
2022-09-10T16:09:09.493Z,3.70
2022-09-10T16:11:39.580Z,4.07
2022-09-10T16:14:08.947Z,4.10
2022-09-10T16:16:37.776Z,5.28
2022-09-10T16:19:07.462Z,4.55
2022-09-10T16:21:38.578Z,3.85
2022-09-10T16:24:08.064Z,4.50
2022-09-10T16:26:37.803Z,3.78
2022-09-10T16:29:09.253Z,3.83
2022-09-10T16:31:39.145Z,4.47
2022-09-10T16:34:12.994Z,4.40
2022-09-10T16:36:40.786Z,4.22
2022-09-10T16:39:13.341Z,3.80
2022-09-10T16:41:42.052Z,4.00
2022-09-10T16:44:11.501Z,4.25
2022-09-10T16:46:39.413Z,5.55
2022-09-10T16:49:12.888Z,5.28
2022-09-10T16:51:42.116Z,4.15
2022-09-10T16:54:11.809Z,4.10
2022-09-10T16:56:42.286Z,4.32
2022-09-10T16:59:15.283Z,4.65
2022-09-10T17:01:44.937Z,4.20
2022-09-10T17:04:20.501Z,3.92
2022-09-10T17:06:51.175Z,4.63
2022-09-10T17:09:19.440Z,4.18
2022-09-10T17:11:47.179Z,4.15
2022-09-10T17:14:14.883Z,3.50
2022-09-10T17:16:44.036Z,4.10
2022-09-10T17:19:14.557Z,4.55
2022-09-10T17:21:47.293Z,4.78
2022-09-10T17:24:15.723Z,3.80
2022-09-10T17:26:44.092Z,4.63
2022-09-10T17:29:14.708Z,3.80
2022-09-10T17:31:43.651Z,3.58
2022-09-10T17:34:13.362Z,3.63
2022-09-10T17:36:44.191Z,3.72
2022-09-10T17:39:12.534Z,4.00
2022-09-10T17:41:40.641Z,4.70
2022-09-10T17:44:08.992Z,3.33
2022-09-10T17:46:37.591Z,3.25
2022-09-10T17:49:06.254Z,4.30
2022-09-10T17:51:37.789Z,3.97
2022-09-10T17:54:08.330Z,3.85
2022-09-10T17:56:38.323Z,3.20
2022-09-10T17:59:07.031Z,3.33
2022-09-10T18:01:38.192Z,4.30
2022-09-10T18:04:06.282Z,3.70
2022-09-10T18:06:36.429Z,3.95
2022-09-10T18:09:06.469Z,4.03
2022-09-10T18:11:36.556Z,4.35
2022-09-10T18:14:05.014Z,3.50
2022-09-10T18:16:34.223Z,5.25
2022-09-10T18:19:04.603Z,5.90
2022-09-10T18:21:34.693Z,5.53
2022-09-10T18:24:05.165Z,5.40
2022-09-10T18:26:36.941Z,5.97
2022-09-10T18:29:06.524Z,5.13
2022-09-10T18:31:37.452Z,5.18
2022-09-10T18:34:06.366Z,4.57
2022-09-10T18:36:35.402Z,4.43
2022-09-10T18:39:04.378Z,4.40
2022-09-10T18:41:36.455Z,4.90
2022-09-10T18:44:07.174Z,4.25
2022-09-10T18:46:36.885Z,4.10
2022-09-10T18:49:05.693Z,5.72
2022-09-10T18:51:33.414Z,4.95
2022-09-10T18:54:04.483Z,5.07
2022-09-10T18:56:35.065Z,4.72
2022-09-10T18:59:07.483Z,4.93
2022-09-10T19:01:38.241Z,5.78
2022-09-10T19:04:07.339Z,4.97
2022-09-10T19:06:38.900Z,5.68
2022-09-10T19:09:09.621Z,4.93
2022-09-10T19:11:40.685Z,4.90
2022-09-10T19:14:19.646Z,5.38
2022-09-10T19:16:48.906Z,5.78
2022-09-10T19:19:19.864Z,6.05
2022-09-10T19:21:48.960Z,5.65
2022-09-10T19:24:19.362Z,5.50
2022-09-10T19:26:55.090Z,5.53
2022-09-10T19:29:23.425Z,6.18
2022-09-10T19:31:52.964Z,5.65
2022-09-10T19:34:22.859Z,5.72
2022-09-10T19:36:50.644Z,5.78
2022-09-10T19:39:19.268Z,5.85
2022-09-10T19:41:48.007Z,6.00
2022-09-10T19:44:18.765Z,5.45
2022-09-10T19:46:46.709Z,5.35
2022-09-10T19:49:14.423Z,5.25
2022-09-10T19:51:43.490Z,5.55
2022-09-10T19:54:12.683Z,6.28
2022-09-10T19:56:42.483Z,5.88
2022-09-10T19:59:11.007Z,6.25
2022-09-10T20:01:42.681Z,5.70
2022-09-10T20:04:12.611Z,5.38
2022-09-10T20:06:41.866Z,5.32
2022-09-10T20:09:10.909Z,5.32
2022-09-10T20:11:39.524Z,5.22
2022-09-10T20:14:10.039Z,5.85
2022-09-10T20:16:39.160Z,4.63
2022-09-10T20:19:08.797Z,4.35
2022-09-10T20:21:37.807Z,4.70
2022-09-10T20:24:07.816Z,4.88
2022-09-10T20:26:38.552Z,4.57
2022-09-10T20:29:08.338Z,4.90
2022-09-10T20:31:41.508Z,4.40
2022-09-10T20:34:14.225Z,5.07
2022-09-10T20:36:43.196Z,5.50
2022-09-10T20:39:13.604Z,4.53
2022-09-10T20:41:42.405Z,4.35
2022-09-10T20:44:13.607Z,4.70
2022-09-10T20:46:42.220Z,4.53
2022-09-10T20:49:13.621Z,4.85
2022-09-10T20:51:42.627Z,5.53
2022-09-10T20:54:13.595Z,6.43
2022-09-10T20:56:42.616Z,6.47
2022-09-10T20:59:12.090Z,7.10
2022-09-10T21:01:40.282Z,7.05
2022-09-10T21:04:08.676Z,7.90
2022-09-10T21:06:37.976Z,7.70
2022-09-10T21:09:06.174Z,7.38
2022-09-10T21:11:35.950Z,7.15
2022-09-10T21:14:06.586Z,6.50
2022-09-10T21:16:37.074Z,6.03
2022-09-10T21:19:07.789Z,7.32
2022-09-10T21:21:39.539Z,6.72
2022-09-10T21:24:09.060Z,6.93
2022-09-10T21:26:39.484Z,6.55
2022-09-10T21:29:10.635Z,7.18
2022-09-10T21:31:39.669Z,6.40
2022-09-10T21:34:07.822Z,6.65
2022-09-10T21:36:38.547Z,7.25
2022-09-10T21:39:08.330Z,6.95
2022-09-10T21:41:37.679Z,6.68
2022-09-10T21:44:09.036Z,6.00
2022-09-10T21:46:37.168Z,6.53
2022-09-10T21:49:05.263Z,6.72
2022-09-10T21:51:33.421Z,6.72
2022-09-10T21:54:03.007Z,6.38
2022-09-10T21:56:30.717Z,7.10
2022-09-10T21:59:01.129Z,6.95
2022-09-10T22:01:30.670Z,7.40
2022-09-10T22:04:01.056Z,6.70
2022-09-10T22:06:30.629Z,7.38
2022-09-10T22:09:00.635Z,6.30
2022-09-10T22:11:32.932Z,7.35
2022-09-10T22:14:03.012Z,7.60
2022-09-10T22:16:32.215Z,7.38
2022-09-10T22:19:03.029Z,7.18
2022-09-10T22:21:31.198Z,6.82
2022-09-10T22:23:59.679Z,6.57
2022-09-10T22:26:29.706Z,6.90
2022-09-10T22:29:00.419Z,6.72
2022-09-10T22:31:31.235Z,7.50
2022-09-10T22:34:00.907Z,7.03
2022-09-10T22:36:31.460Z,7.57
2022-09-10T22:39:01.433Z,6.70
2022-09-10T22:41:34.064Z,6.75
2022-09-10T22:44:02.842Z,7.18
2022-09-10T22:46:31.360Z,7.47
2022-09-10T22:48:59.973Z,7.28
2022-09-10T22:51:29.878Z,6.68
2022-09-10T22:53:59.609Z,7.72
2022-09-10T22:56:28.151Z,7.82
2022-09-10T22:58:58.957Z,7.78
2022-09-10T23:01:29.550Z,7.63
2022-09-10T23:03:58.149Z,7.05
2022-09-10T23:06:29.070Z,6.75
2022-09-10T23:08:59.304Z,6.78
2022-09-10T23:11:29.261Z,6.70
2022-09-10T23:14:01.424Z,6.07
2022-09-10T23:16:33.454Z,6.60
2022-09-10T23:19:03.847Z,6.60
2022-09-10T23:21:33.634Z,5.85
2022-09-10T23:24:03.091Z,7.20
2022-09-10T23:26:31.502Z,6.38
2022-09-10T23:29:03.730Z,6.90
2022-09-10T23:31:33.906Z,7.80
2022-09-10T23:34:04.134Z,8.15
2022-09-10T23:36:34.530Z,8.30
2022-09-10T23:39:05.032Z,9.50
2022-09-10T23:41:33.594Z,9.27
2022-09-10T23:44:03.123Z,9.95
2022-09-10T23:46:31.662Z,8.98
2022-09-10T23:49:00.323Z,10.45
2022-09-10T23:51:29.477Z,10.63
2022-09-10T23:53:57.204Z,10.88
2022-09-10T23:56:27.457Z,11.98
2022-09-10T23:58:55.655Z,11.18
